sensor_id;sensor_type;location;lat;lon;timestamp;P1;durP1;ratioP1;P2;durP2;ratioP2
60098;SDS011;45976;49.400;8.682;2022-07-10T00:00:46;3.00;;;2.63;;
60098;SDS011;45976;49.400;8.682;2022-07-10T00:01:46;4.75;;;2.33;;
60098;SDS011;45976;49.400;8.682;2022-07-10T00:02:47;4.15;;;2.75;;
60098;SDS011;45976;49.400;8.682;2022-07-10T00:03:48;4.40;;;3.23;;
60098;SDS011;45976;49.400;8.682;2022-07-10T00:04:49;3.72;;;3.03;;
60098;SDS011;45976;49.400;8.682;2022-07-10T00:05:50;4.63;;;3.07;;
60098;SDS011;45976;49.400;8.682;2022-07-10T00:06:51;4.47;;;3.13;;
60098;SDS011;45976;49.400;8.682;2022-07-10T00:07:51;7.37;;;3.50;;
60098;SDS011;45976;49.400;8.682;2022-07-10T00:08:52;3.67;;;2.90;;
60098;SDS011;45976;49.400;8.682;2022-07-10T00:09:54;4.10;;;3.47;;
60098;SDS011;45976;49.400;8.682;2022-07-10T00:10:55;4.83;;;3.10;;
60098;SDS011;45976;49.400;8.682;2022-07-10T00:11:55;5.63;;;3.33;;
60098;SDS011;45976;49.400;8.682;2022-07-10T00:12:56;4.33;;;3.17;;
60098;SDS011;45976;49.400;8.682;2022-07-10T00:13:57;6.47;;;3.42;;
60098;SDS011;45976;49.400;8.682;2022-07-10T00:14:57;3.93;;;2.80;;
60098;SDS011;45976;49.400;8.682;2022-07-10T00:15:58;4.67;;;3.33;;
60098;SDS011;45976;49.400;8.682;2022-07-10T00:16:59;5.25;;;3.20;;
60098;SDS011;45976;49.400;8.682;2022-07-10T00:17:59;8.33;;;2.73;;
60098;SDS011;45976;49.400;8.682;2022-07-10T00:19:00;4.90;;;3.20;;
60098;SDS011;45976;49.400;8.682;2022-07-10T00:20:01;5.87;;;3.83;;
60098;SDS011;45976;49.400;8.682;2022-07-10T00:21:02;6.07;;;3.60;;
60098;SDS011;45976;49.400;8.682;2022-07-10T00:22:03;5.18;;;4.05;;
60098;SDS011;45976;49.400;8.682;2022-07-10T00:23:04;5.80;;;3.22;;
60098;SDS011;45976;49.400;8.682;2022-07-10T00:24:05;6.67;;;4.23;;
60098;SDS011;45976;49.400;8.682;2022-07-10T00:25:06;6.80;;;3.80;;
60098;SDS011;45976;49.400;8.682;2022-07-10T00:26:11;6.65;;;3.47;;
60098;SDS011;45976;49.400;8.682;2022-07-10T00:27:11;5.50;;;3.97;;
60098;SDS011;45976;49.400;8.682;2022-07-10T00:28:12;6.13;;;3.85;;
60098;SDS011;45976;49.400;8.682;2022-07-10T00:29:13;5.47;;;4.17;;
60098;SDS011;45976;49.400;8.682;2022-07-10T00:30:15;6.65;;;3.88;;
60098;SDS011;45976;49.400;8.682;2022-07-10T00:31:15;5.27;;;4.00;;
60098;SDS011;45976;49.400;8.682;2022-07-10T00:32:16;6.53;;;4.00;;
60098;SDS011;45976;49.400;8.682;2022-07-10T00:33:17;7.55;;;3.72;;
60098;SDS011;45976;49.400;8.682;2022-07-10T00:34:17;6.90;;;3.70;;
60098;SDS011;45976;49.400;8.682;2022-07-10T00:35:18;4.70;;;3.30;;
60098;SDS011;45976;49.400;8.682;2022-07-10T00:36:18;4.90;;;3.50;;
60098;SDS011;45976;49.400;8.682;2022-07-10T00:37:21;7.97;;;4.50;;
60098;SDS011;45976;49.400;8.682;2022-07-10T00:38:23;5.70;;;4.70;;
60098;SDS011;45976;49.400;8.682;2022-07-10T00:39:23;5.78;;;4.85;;
60098;SDS011;45976;49.400;8.682;2022-07-10T00:40:24;10.63;;;5.03;;
60098;SDS011;45976;49.400;8.682;2022-07-10T00:41:25;7.90;;;4.40;;
60098;SDS011;45976;49.400;8.682;2022-07-10T00:42:26;10.17;;;4.90;;
60098;SDS011;45976;49.400;8.682;2022-07-10T00:43:27;6.40;;;4.63;;
60098;SDS011;45976;49.400;8.682;2022-07-10T00:44:28;7.10;;;4.87;;
60098;SDS011;45976;49.400;8.682;2022-07-10T00:45:28;11.23;;;4.60;;
60098;SDS011;45976;49.400;8.682;2022-07-10T00:46:29;8.93;;;4.83;;
60098;SDS011;45976;49.400;8.682;2022-07-10T00:47:31;6.50;;;4.93;;
60098;SDS011;45976;49.400;8.682;2022-07-10T00:48:32;5.37;;;4.50;;
60098;SDS011;45976;49.400;8.682;2022-07-10T00:49:33;10.07;;;4.87;;
60098;SDS011;45976;49.400;8.682;2022-07-10T00:50:36;6.43;;;5.05;;
60098;SDS011;45976;49.400;8.682;2022-07-10T00:51:38;6.38;;;5.20;;
60098;SDS011;45976;49.400;8.682;2022-07-10T00:52:39;9.13;;;4.70;;
60098;SDS011;45976;49.400;8.682;2022-07-10T00:53:41;7.43;;;4.85;;
60098;SDS011;45976;49.400;8.682;2022-07-10T00:54:45;6.88;;;5.38;;
60098;SDS011;45976;49.400;8.682;2022-07-10T00:55:51;6.68;;;5.45;;
60098;SDS011;45976;49.400;8.682;2022-07-10T00:56:52;6.30;;;5.03;;
60098;SDS011;45976;49.400;8.682;2022-07-10T00:58:55;7.65;;;5.85;;
60098;SDS011;45976;49.400;8.682;2022-07-10T00:59:56;7.35;;;5.07;;
60098;SDS011;45976;49.400;8.682;2022-07-10T01:00:58;8.95;;;6.20;;
60098;SDS011;45976;49.400;8.682;2022-07-10T01:02:00;7.32;;;5.90;;
60098;SDS011;45976;49.400;8.682;2022-07-10T01:03:05;7.15;;;5.40;;
60098;SDS011;45976;49.400;8.682;2022-07-10T01:04:06;6.37;;;5.73;;
60098;SDS011;45976;49.400;8.682;2022-07-10T01:05:06;8.53;;;5.90;;
60098;SDS011;45976;49.400;8.682;2022-07-10T01:06:07;6.75;;;6.00;;
60098;SDS011;45976;49.400;8.682;2022-07-10T01:07:08;7.70;;;6.20;;
60098;SDS011;45976;49.400;8.682;2022-07-10T01:08:08;10.03;;;6.03;;
60098;SDS011;45976;49.400;8.682;2022-07-10T01:09:09;7.03;;;6.23;;
60098;SDS011;45976;49.400;8.682;2022-07-10T01:10:11;12.13;;;5.20;;
60098;SDS011;45976;49.400;8.682;2022-07-10T01:11:12;8.60;;;5.90;;
60098;SDS011;45976;49.400;8.682;2022-07-10T01:12:14;10.52;;;6.00;;
60098;SDS011;45976;49.400;8.682;2022-07-10T01:13:17;7.78;;;6.13;;
60098;SDS011;45976;49.400;8.682;2022-07-10T01:14:17;8.73;;;6.28;;
60098;SDS011;45976;49.400;8.682;2022-07-10T01:15:19;7.40;;;5.75;;
60098;SDS011;45976;49.400;8.682;2022-07-10T01:16:20;7.17;;;5.67;;
60098;SDS011;45976;49.400;8.682;2022-07-10T01:18:24;9.85;;;5.93;;
60098;SDS011;45976;49.400;8.682;2022-07-10T01:19:26;6.93;;;5.68;;
60098;SDS011;45976;49.400;8.682;2022-07-10T01:20:33;7.10;;;6.40;;
60098;SDS011;45976;49.400;8.682;2022-07-10T01:21:34;11.02;;;6.40;;
60098;SDS011;45976;49.400;8.682;2022-07-10T01:22:37;13.15;;;5.90;;
60098;SDS011;45976;49.400;8.682;2022-07-10T01:23:37;9.30;;;5.53;;
60098;SDS011;45976;49.400;8.682;2022-07-10T01:24:38;10.63;;;6.47;;
60098;SDS011;45976;49.400;8.682;2022-07-10T01:25:39;10.87;;;6.20;;
60098;SDS011;45976;49.400;8.682;2022-07-10T01:26:39;8.20;;;5.87;;
60098;SDS011;45976;49.400;8.682;2022-07-10T01:27:42;7.63;;;6.00;;
60098;SDS011;45976;49.400;8.682;2022-07-10T01:28:43;7.10;;;6.22;;
60098;SDS011;45976;49.400;8.682;2022-07-10T01:30:47;8.75;;;5.20;;
60098;SDS011;45976;49.400;8.682;2022-07-10T01:31:49;6.28;;;5.40;;
60098;SDS011;45976;49.400;8.682;2022-07-10T01:32:49;6.80;;;5.57;;
60098;SDS011;45976;49.400;8.682;2022-07-10T01:33:50;7.47;;;6.30;;
60098;SDS011;45976;49.400;8.682;2022-07-10T01:34:51;6.40;;;5.70;;
60098;SDS011;45976;49.400;8.682;2022-07-10T01:35:52;11.07;;;5.97;;
60098;SDS011;45976;49.400;8.682;2022-07-10T01:36:52;9.57;;;5.37;;
60098;SDS011;45976;49.400;8.682;2022-07-10T01:37:53;6.93;;;5.07;;
60098;SDS011;45976;49.400;8.682;2022-07-10T01:38:54;7.33;;;5.30;;
60098;SDS011;45976;49.400;8.682;2022-07-10T01:39:56;7.65;;;5.60;;
60098;SDS011;45976;49.400;8.682;2022-07-10T01:40:57;7.10;;;5.70;;
60098;SDS011;45976;49.400;8.682;2022-07-10T01:41:58;6.80;;;5.67;;
60098;SDS011;45976;49.400;8.682;2022-07-10T01:42:58;8.27;;;5.13;;
60098;SDS011;45976;49.400;8.682;2022-07-10T01:43:59;8.90;;;4.83;;
60098;SDS011;45976;49.400;8.682;2022-07-10T01:44:59;7.93;;;5.20;;
60098;SDS011;45976;49.400;8.682;2022-07-10T01:46:00;7.47;;;4.53;;
60098;SDS011;45976;49.400;8.682;2022-07-10T01:48:02;5.07;;;4.57;;
60098;SDS011;45976;49.400;8.682;2022-07-10T01:49:03;7.57;;;4.80;;
60098;SDS011;45976;49.400;8.682;2022-07-10T01:50:04;8.57;;;5.10;;
60098;SDS011;45976;49.400;8.682;2022-07-10T01:51:06;5.72;;;5.03;;
60098;SDS011;45976;49.400;8.682;2022-07-10T01:52:09;5.40;;;4.90;;
60098;SDS011;45976;49.400;8.682;2022-07-10T01:53:10;9.35;;;5.00;;
60098;SDS011;45976;49.400;8.682;2022-07-10T01:54:10;6.27;;;4.63;;
60098;SDS011;45976;49.400;8.682;2022-07-10T01:55:11;8.77;;;4.87;;
60098;SDS011;45976;49.400;8.682;2022-07-10T01:56:12;7.57;;;4.47;;
60098;SDS011;45976;49.400;8.682;2022-07-10T01:57:15;5.13;;;4.57;;
60098;SDS011;45976;49.400;8.682;2022-07-10T01:58:16;9.35;;;4.78;;
60098;SDS011;45976;49.400;8.682;2022-07-10T01:59:17;7.07;;;4.80;;
60098;SDS011;45976;49.400;8.682;2022-07-10T02:00:19;7.68;;;4.10;;
60098;SDS011;45976;49.400;8.682;2022-07-10T02:01:20;6.40;;;4.37;;
60098;SDS011;45976;49.400;8.682;2022-07-10T02:02:21;6.17;;;3.90;;
60098;SDS011;45976;49.400;8.682;2022-07-10T02:03:21;4.60;;;4.20;;
60098;SDS011;45976;49.400;8.682;2022-07-10T02:04:40;6.10;;;4.15;;
60098;SDS011;45976;49.400;8.682;2022-07-10T02:05:41;6.70;;;4.17;;
60098;SDS011;45976;49.400;8.682;2022-07-10T02:06:42;6.67;;;4.40;;
60098;SDS011;45976;49.400;8.682;2022-07-10T02:07:42;5.43;;;4.73;;
60098;SDS011;45976;49.400;8.682;2022-07-10T02:08:43;6.27;;;4.43;;
60098;SDS011;45976;49.400;8.682;2022-07-10T02:09:44;5.32;;;3.90;;
60098;SDS011;45976;49.400;8.682;2022-07-10T02:10:45;7.60;;;4.03;;
60098;SDS011;45976;49.400;8.682;2022-07-10T02:11:46;8.17;;;4.60;;
60098;SDS011;45976;49.400;8.682;2022-07-10T02:12:47;4.63;;;4.03;;
60098;SDS011;45976;49.400;8.682;2022-07-10T02:13:47;5.90;;;4.10;;
60098;SDS011;45976;49.400;8.682;2022-07-10T02:14:48;12.30;;;4.63;;
60098;SDS011;45976;49.400;8.682;2022-07-10T02:15:49;6.00;;;3.97;;
60098;SDS011;45976;49.400;8.682;2022-07-10T02:16:50;3.95;;;3.53;;
60098;SDS011;45976;49.400;8.682;2022-07-10T02:17:50;5.72;;;4.18;;
60098;SDS011;45976;49.400;8.682;2022-07-10T02:18:51;8.07;;;4.63;;
60098;SDS011;45976;49.400;8.682;2022-07-10T02:19:52;8.13;;;4.90;;
60098;SDS011;45976;49.400;8.682;2022-07-10T02:20:52;5.53;;;4.27;;
60098;SDS011;45976;49.400;8.682;2022-07-10T02:21:53;7.00;;;4.20;;
60098;SDS011;45976;49.400;8.682;2022-07-10T02:22:54;5.93;;;4.13;;
60098;SDS011;45976;49.400;8.682;2022-07-10T02:23:54;6.70;;;4.23;;
60098;SDS011;45976;49.400;8.682;2022-07-10T02:24:55;5.80;;;4.60;;
60098;SDS011;45976;49.400;8.682;2022-07-10T02:25:55;7.17;;;4.57;;
60098;SDS011;45976;49.400;8.682;2022-07-10T02:26:56;8.48;;;5.20;;
60098;SDS011;45976;49.400;8.682;2022-07-10T02:27:57;6.90;;;4.40;;
60098;SDS011;45976;49.400;8.682;2022-07-10T02:28:57;9.33;;;4.80;;
60098;SDS011;45976;49.400;8.682;2022-07-10T02:29:58;6.93;;;4.03;;
60098;SDS011;45976;49.400;8.682;2022-07-10T02:30:59;6.57;;;4.37;;
60098;SDS011;45976;49.400;8.682;2022-07-10T02:31:59;8.03;;;4.20;;
60098;SDS011;45976;49.400;8.682;2022-07-10T02:33:00;7.90;;;4.40;;
60098;SDS011;45976;49.400;8.682;2022-07-10T02:34:01;8.05;;;4.22;;
60098;SDS011;45976;49.400;8.682;2022-07-10T02:35:01;7.13;;;4.30;;
60098;SDS011;45976;49.400;8.682;2022-07-10T02:36:02;4.80;;;4.10;;
60098;SDS011;45976;49.400;8.682;2022-07-10T02:37:04;6.38;;;4.05;;
60098;SDS011;45976;49.400;8.682;2022-07-10T02:38:05;6.80;;;3.90;;
60098;SDS011;45976;49.400;8.682;2022-07-10T02:39:06;10.05;;;4.15;;
60098;SDS011;45976;49.400;8.682;2022-07-10T02:40:08;5.38;;;3.97;;
60098;SDS011;45976;49.400;8.682;2022-07-10T02:41:09;7.85;;;3.50;;
60098;SDS011;45976;49.400;8.682;2022-07-10T02:42:09;4.20;;;3.10;;
60098;SDS011;45976;49.400;8.682;2022-07-10T02:43:10;4.80;;;3.53;;
60098;SDS011;45976;49.400;8.682;2022-07-10T02:44:10;6.53;;;3.87;;
60098;SDS011;45976;49.400;8.682;2022-07-10T02:45:11;7.32;;;3.25;;
60098;SDS011;45976;49.400;8.682;2022-07-10T02:46:12;4.70;;;3.00;;
60098;SDS011;45976;49.400;8.682;2022-07-10T02:47:12;5.50;;;3.37;;
60098;SDS011;45976;49.400;8.682;2022-07-10T02:48:16;6.23;;;3.23;;
60098;SDS011;45976;49.400;8.682;2022-07-10T02:49:18;6.97;;;3.35;;
60098;SDS011;45976;49.400;8.682;2022-07-10T02:50:18;4.60;;;3.20;;
60098;SDS011;45976;49.400;8.682;2022-07-10T02:51:19;7.23;;;3.00;;
60098;SDS011;45976;49.400;8.682;2022-07-10T02:52:20;8.25;;;3.60;;
60098;SDS011;45976;49.400;8.682;2022-07-10T02:53:20;7.17;;;2.77;;
60098;SDS011;45976;49.400;8.682;2022-07-10T02:54:21;8.55;;;3.17;;
60098;SDS011;45976;49.400;8.682;2022-07-10T02:55:22;6.93;;;3.10;;
60098;SDS011;45976;49.400;8.682;2022-07-10T02:56:22;6.47;;;3.13;;
60098;SDS011;45976;49.400;8.682;2022-07-10T02:57:23;5.37;;;3.00;;
60098;SDS011;45976;49.400;8.682;2022-07-10T02:58:24;7.90;;;3.20;;
60098;SDS011;45976;49.400;8.682;2022-07-10T02:59:25;7.15;;;2.80;;
60098;SDS011;45976;49.400;8.682;2022-07-10T03:00:26;5.05;;;2.85;;
60098;SDS011;45976;49.400;8.682;2022-07-10T03:01:27;7.43;;;3.55;;
60098;SDS011;45976;49.400;8.682;2022-07-10T03:02:28;7.03;;;2.77;;
60098;SDS011;45976;49.400;8.682;2022-07-10T03:03:28;6.73;;;2.70;;
60098;SDS011;45976;49.400;8.682;2022-07-10T03:04:29;4.73;;;2.80;;
60098;SDS011;45976;49.400;8.682;2022-07-10T03:05:29;4.40;;;2.67;;
60098;SDS011;45976;49.400;8.682;2022-07-10T03:06:30;6.30;;;3.23;;
60098;SDS011;45976;49.400;8.682;2022-07-10T03:07:31;5.63;;;2.83;;
60098;SDS011;45976;49.400;8.682;2022-07-10T03:08:31;7.80;;;2.93;;
60098;SDS011;45976;49.400;8.682;2022-07-10T03:09:32;4.20;;;2.70;;
60098;SDS011;45976;49.400;8.682;2022-07-10T03:10:33;6.88;;;3.10;;
60098;SDS011;45976;49.400;8.682;2022-07-10T03:11:33;5.73;;;2.70;;
60098;SDS011;45976;49.400;8.682;2022-07-10T03:12:34;7.20;;;2.60;;
60098;SDS011;45976;49.400;8.682;2022-07-10T03:13:37;6.63;;;2.78;;
60098;SDS011;45976;49.400;8.682;2022-07-10T03:14:38;3.60;;;2.50;;
60098;SDS011;45976;49.400;8.682;2022-07-10T03:15:38;5.33;;;3.20;;
60098;SDS011;45976;49.400;8.682;2022-07-10T03:16:39;8.20;;;3.23;;
60098;SDS011;45976;49.400;8.682;2022-07-10T03:17:39;5.83;;;3.17;;
60098;SDS011;45976;49.400;8.682;2022-07-10T03:18:40;5.93;;;2.60;;
60098;SDS011;45976;49.400;8.682;2022-07-10T03:19:41;9.13;;;2.60;;
60098;SDS011;45976;49.400;8.682;2022-07-10T03:20:41;3.83;;;2.50;;
60098;SDS011;45976;49.400;8.682;2022-07-10T03:21:42;4.67;;;2.20;;
60098;SDS011;45976;49.400;8.682;2022-07-10T03:22:44;4.53;;;2.33;;
60098;SDS011;45976;49.400;8.682;2022-07-10T03:23:45;9.75;;;2.20;;
60098;SDS011;45976;49.400;8.682;2022-07-10T03:24:46;5.40;;;2.77;;
60098;SDS011;45976;49.400;8.682;2022-07-10T03:25:46;5.22;;;2.25;;
60098;SDS011;45976;49.400;8.682;2022-07-10T03:26:47;6.53;;;2.50;;
60098;SDS011;45976;49.400;8.682;2022-07-10T03:27:48;4.57;;;2.27;;
60098;SDS011;45976;49.400;8.682;2022-07-10T03:28:51;5.28;;;2.58;;
60098;SDS011;45976;49.400;8.682;2022-07-10T03:29:52;5.15;;;2.08;;
60098;SDS011;45976;49.400;8.682;2022-07-10T03:30:52;6.17;;;2.40;;
60098;SDS011;45976;49.400;8.682;2022-07-10T03:31:53;7.40;;;2.50;;
60098;SDS011;45976;49.400;8.682;2022-07-10T03:32:53;7.40;;;2.40;;
60098;SDS011;45976;49.400;8.682;2022-07-10T03:33:54;4.37;;;2.40;;
60098;SDS011;45976;49.400;8.682;2022-07-10T03:34:54;9.47;;;2.33;;
60098;SDS011;45976;49.400;8.682;2022-07-10T03:35:55;4.93;;;2.20;;
60098;SDS011;45976;49.400;8.682;2022-07-10T03:36:56;7.70;;;2.67;;
60098;SDS011;45976;49.400;8.682;2022-07-10T03:37:57;3.30;;;2.17;;
60098;SDS011;45976;49.400;8.682;2022-07-10T03:38:57;3.83;;;2.53;;
60098;SDS011;45976;49.400;8.682;2022-07-10T03:40:01;3.45;;;2.20;;
60098;SDS011;45976;49.400;8.682;2022-07-10T03:41:05;3.10;;;2.13;;
60098;SDS011;45976;49.400;8.682;2022-07-10T03:42:06;12.18;;;2.72;;
60098;SDS011;45976;49.400;8.682;2022-07-10T03:43:13;3.72;;;2.20;;
60098;SDS011;45976;49.400;8.682;2022-07-10T03:44:15;7.03;;;2.55;;
60098;SDS011;45976;49.400;8.682;2022-07-10T03:45:16;4.33;;;2.30;;
60098;SDS011;45976;49.400;8.682;2022-07-10T03:46:17;3.08;;;2.10;;
60098;SDS011;45976;49.400;8.682;2022-07-10T03:47:23;3.13;;;2.20;;
60098;SDS011;45976;49.400;8.682;2022-07-10T03:48:27;7.03;;;2.35;;
60098;SDS011;45976;49.400;8.682;2022-07-10T03:49:27;5.72;;;2.40;;
60098;SDS011;45976;49.400;8.682;2022-07-10T03:50:32;5.53;;;2.40;;
60098;SDS011;45976;49.400;8.682;2022-07-10T03:52:37;7.40;;;2.22;;
60098;SDS011;45976;49.400;8.682;2022-07-10T03:53:44;5.70;;;2.10;;
60098;SDS011;45976;49.400;8.682;2022-07-10T03:54:45;3.65;;;2.00;;
60098;SDS011;45976;49.400;8.682;2022-07-10T03:55:46;5.20;;;2.10;;
60098;SDS011;45976;49.400;8.682;2022-07-10T03:57:07;5.30;;;2.10;;
60098;SDS011;45976;49.400;8.682;2022-07-10T03:58:35;8.40;;;2.17;;
60098;SDS011;45976;49.400;8.682;2022-07-10T03:59:45;6.07;;;2.38;;
60098;SDS011;45976;49.400;8.682;2022-07-10T04:00:55;3.67;;;2.05;;
60098;SDS011;45976;49.400;8.682;2022-07-10T04:01:56;3.83;;;2.07;;
60098;SDS011;45976;49.400;8.682;2022-07-10T04:02:57;3.73;;;1.80;;
60098;SDS011;45976;49.400;8.682;2022-07-10T04:04:13;6.20;;;1.92;;
60098;SDS011;45976;49.400;8.682;2022-07-10T04:05:13;3.30;;;2.00;;
60098;SDS011;45976;49.400;8.682;2022-07-10T04:06:18;9.25;;;2.45;;
60098;SDS011;45976;49.400;8.682;2022-07-10T04:07:21;4.65;;;1.98;;
60098;SDS011;45976;49.400;8.682;2022-07-10T04:08:22;5.17;;;2.10;;
60098;SDS011;45976;49.400;8.682;2022-07-10T04:09:43;5.13;;;2.20;;
60098;SDS011;45976;49.400;8.682;2022-07-10T04:10:46;2.63;;;1.93;;
60098;SDS011;45976;49.400;8.682;2022-07-10T04:11:55;6.82;;;2.35;;
60098;SDS011;45976;49.400;8.682;2022-07-10T04:12:58;7.28;;;2.15;;
60098;SDS011;45976;49.400;8.682;2022-07-10T04:14:14;5.03;;;2.10;;
60098;SDS011;45976;49.400;8.682;2022-07-10T04:15:18;5.18;;;2.00;;
60098;SDS011;45976;49.400;8.682;2022-07-10T04:16:22;4.40;;;1.95;;
60098;SDS011;45976;49.400;8.682;2022-07-10T04:17:39;7.65;;;2.08;;
60098;SDS011;45976;49.400;8.682;2022-07-10T04:18:42;3.83;;;2.35;;
60098;SDS011;45976;49.400;8.682;2022-07-10T04:19:46;3.10;;;1.92;;
60098;SDS011;45976;49.400;8.682;2022-07-10T04:20:47;2.65;;;1.90;;
60098;SDS011;45976;49.400;8.682;2022-07-10T04:21:52;3.47;;;1.67;;
60098;SDS011;45976;49.400;8.682;2022-07-10T04:22:53;3.80;;;1.93;;
60098;SDS011;45976;49.400;8.682;2022-07-10T04:23:57;6.55;;;2.13;;
60098;SDS011;45976;49.400;8.682;2022-07-10T04:25:01;4.75;;;2.13;;
60098;SDS011;45976;49.400;8.682;2022-07-10T04:26:10;3.55;;;1.85;;
60098;SDS011;45976;49.400;8.682;2022-07-10T04:27:11;4.40;;;2.00;;
60098;SDS011;45976;49.400;8.682;2022-07-10T04:28:16;6.50;;;2.30;;
60098;SDS011;45976;49.400;8.682;2022-07-10T04:29:23;5.47;;;2.03;;
60098;SDS011;45976;49.400;8.682;2022-07-10T04:30:33;7.30;;;2.15;;
60098;SDS011;45976;49.400;8.682;2022-07-10T04:31:39;5.63;;;1.90;;
60098;SDS011;45976;49.400;8.682;2022-07-10T04:33:00;5.82;;;1.83;;
60098;SDS011;45976;49.400;8.682;2022-07-10T04:34:03;4.95;;;1.77;;
60098;SDS011;45976;49.400;8.682;2022-07-10T04:35:07;4.93;;;1.80;;
60098;SDS011;45976;49.400;8.682;2022-07-10T04:37:39;4.60;;;1.95;;
60098;SDS011;45976;49.400;8.682;2022-07-10T04:38:50;7.47;;;2.03;;
60098;SDS011;45976;49.400;8.682;2022-07-10T04:39:57;4.90;;;1.60;;
60098;SDS011;45976;49.400;8.682;2022-07-10T04:41:09;4.47;;;1.67;;
60098;SDS011;45976;49.400;8.682;2022-07-10T04:42:18;4.90;;;1.90;;
60098;SDS011;45976;49.400;8.682;2022-07-10T04:43:22;2.55;;;1.50;;
60098;SDS011;45976;49.400;8.682;2022-07-10T04:44:42;4.50;;;2.05;;
60098;SDS011;45976;49.400;8.682;2022-07-10T04:45:43;3.63;;;1.67;;
60098;SDS011;45976;49.400;8.682;2022-07-10T04:46:58;6.13;;;1.58;;
60098;SDS011;45976;49.400;8.682;2022-07-10T04:48:03;4.82;;;1.67;;
60098;SDS011;45976;49.400;8.682;2022-07-10T04:49:05;7.45;;;1.77;;
60098;SDS011;45976;49.400;8.682;2022-07-10T04:50:06;6.40;;;1.97;;
60098;SDS011;45976;49.400;8.682;2022-07-10T04:51:08;7.25;;;1.63;;
60098;SDS011;45976;49.400;8.682;2022-07-10T04:52:11;4.53;;;1.88;;
60098;SDS011;45976;49.400;8.682;2022-07-10T04:53:12;4.73;;;1.40;;
60098;SDS011;45976;49.400;8.682;2022-07-10T04:54:24;5.45;;;1.70;;
60098;SDS011;45976;49.400;8.682;2022-07-10T04:55:28;4.20;;;1.55;;
60098;SDS011;45976;49.400;8.682;2022-07-10T04:56:38;10.52;;;1.65;;
60098;SDS011;45976;49.400;8.682;2022-07-10T04:57:39;7.60;;;2.95;;
60098;SDS011;45976;49.400;8.682;2022-07-10T04:58:47;4.72;;;1.40;;
60098;SDS011;45976;49.400;8.682;2022-07-10T04:59:48;7.72;;;1.75;;
60098;SDS011;45976;49.400;8.682;2022-07-10T05:00:49;3.50;;;1.50;;
60098;SDS011;45976;49.400;8.682;2022-07-10T05:01:52;5.43;;;1.75;;
60098;SDS011;45976;49.400;8.682;2022-07-10T05:02:53;3.80;;;1.38;;
60098;SDS011;45976;49.400;8.682;2022-07-10T05:03:56;5.45;;;1.88;;
60098;SDS011;45976;49.400;8.682;2022-07-10T05:05:00;2.75;;;1.40;;
60098;SDS011;45976;49.400;8.682;2022-07-10T05:06:06;5.60;;;1.48;;
60098;SDS011;45976;49.400;8.682;2022-07-10T05:07:11;5.70;;;1.48;;
60098;SDS011;45976;49.400;8.682;2022-07-10T05:08:15;8.18;;;2.00;;
60098;SDS011;45976;49.400;8.682;2022-07-10T05:09:15;2.97;;;1.63;;
60098;SDS011;45976;49.400;8.682;2022-07-10T05:10:28;8.32;;;1.65;;
60098;SDS011;45976;49.400;8.682;2022-07-10T05:11:28;5.15;;;1.90;;
60098;SDS011;45976;49.400;8.682;2022-07-10T05:12:38;7.05;;;1.85;;
60098;SDS011;45976;49.400;8.682;2022-07-10T05:13:38;3.60;;;1.45;;
60098;SDS011;45976;49.400;8.682;2022-07-10T05:14:51;5.88;;;1.52;;
60098;SDS011;45976;49.400;8.682;2022-07-10T05:15:55;3.85;;;1.52;;
60098;SDS011;45976;49.400;8.682;2022-07-10T05:16:56;5.83;;;1.60;;
60098;SDS011;45976;49.400;8.682;2022-07-10T05:17:59;6.77;;;1.83;;
60098;SDS011;45976;49.400;8.682;2022-07-10T05:19:00;5.50;;;1.85;;
60098;SDS011;45976;49.400;8.682;2022-07-10T05:20:04;5.80;;;1.80;;
60098;SDS011;45976;49.400;8.682;2022-07-10T05:21:05;4.43;;;1.88;;
60098;SDS011;45976;49.400;8.682;2022-07-10T05:22:10;6.95;;;1.63;;
60098;SDS011;45976;49.400;8.682;2022-07-10T05:23:11;5.88;;;1.80;;
60098;SDS011;45976;49.400;8.682;2022-07-10T05:24:20;10.40;;;1.80;;
60098;SDS011;45976;49.400;8.682;2022-07-10T05:25:23;4.85;;;1.35;;
60098;SDS011;45976;49.400;8.682;2022-07-10T05:26:26;2.08;;;1.50;;
60098;SDS011;45976;49.400;8.682;2022-07-10T05:27:44;4.32;;;1.33;;
60098;SDS011;45976;49.400;8.682;2022-07-10T05:28:51;13.27;;;1.67;;
60098;SDS011;45976;49.400;8.682;2022-07-10T05:30:10;3.25;;;1.48;;
60098;SDS011;45976;49.400;8.682;2022-07-10T05:31:10;2.38;;;1.27;;
60098;SDS011;45976;49.400;8.682;2022-07-10T05:32:32;5.88;;;0.98;;
60098;SDS011;45976;49.400;8.682;2022-07-10T05:33:43;5.78;;;1.40;;
60098;SDS011;45976;49.400;8.682;2022-07-10T05:34:56;4.63;;;1.35;;
60098;SDS011;45976;49.400;8.682;2022-07-10T05:36:02;3.20;;;1.40;;
60098;SDS011;45976;49.400;8.682;2022-07-10T05:37:13;7.85;;;1.60;;
60098;SDS011;45976;49.400;8.682;2022-07-10T05:38:14;10.55;;;1.67;;
60098;SDS011;45976;49.400;8.682;2022-07-10T05:39:20;7.55;;;1.50;;
60098;SDS011;45976;49.400;8.682;2022-07-10T05:41:40;6.68;;;1.30;;
60098;SDS011;45976;49.400;8.682;2022-07-10T05:42:48;2.50;;;1.17;;
60098;SDS011;45976;49.400;8.682;2022-07-10T05:44:06;4.88;;;1.35;;
60098;SDS011;45976;49.400;8.682;2022-07-10T05:45:19;5.95;;;1.42;;
60098;SDS011;45976;49.400;8.682;2022-07-10T05:47:43;4.80;;;1.60;;
60098;SDS011;45976;49.400;8.682;2022-07-10T05:48:44;4.07;;;1.40;;
60098;SDS011;45976;49.400;8.682;2022-07-10T05:49:45;5.00;;;1.40;;
60098;SDS011;45976;49.400;8.682;2022-07-10T05:50:46;4.47;;;1.47;;
60098;SDS011;45976;49.400;8.682;2022-07-10T05:51:46;6.43;;;1.90;;
60098;SDS011;45976;49.400;8.682;2022-07-10T05:52:47;5.43;;;1.40;;
60098;SDS011;45976;49.400;8.682;2022-07-10T05:53:47;4.17;;;1.50;;
60098;SDS011;45976;49.400;8.682;2022-07-10T05:54:48;5.87;;;1.70;;
60098;SDS011;45976;49.400;8.682;2022-07-10T05:55:49;3.83;;;1.30;;
60098;SDS011;45976;49.400;8.682;2022-07-10T05:56:50;5.35;;;1.40;;
60098;SDS011;45976;49.400;8.682;2022-07-10T05:57:51;6.00;;;1.50;;
60098;SDS011;45976;49.400;8.682;2022-07-10T05:58:51;4.10;;;1.60;;
60098;SDS011;45976;49.400;8.682;2022-07-10T05:59:55;3.05;;;1.52;;
60098;SDS011;45976;49.400;8.682;2022-07-10T06:00:56;8.10;;;1.40;;
60098;SDS011;45976;49.400;8.682;2022-07-10T06:01:56;9.70;;;1.20;;
60098;SDS011;45976;49.400;8.682;2022-07-10T06:02:57;2.57;;;1.10;;
60098;SDS011;45976;49.400;8.682;2022-07-10T06:03:57;4.57;;;1.40;;
60098;SDS011;45976;49.400;8.682;2022-07-10T06:04:58;6.93;;;1.50;;
60098;SDS011;45976;49.400;8.682;2022-07-10T06:05:59;7.60;;;1.50;;
60098;SDS011;45976;49.400;8.682;2022-07-10T06:07:00;10.57;;;1.40;;
60098;SDS011;45976;49.400;8.682;2022-07-10T06:08:00;6.63;;;1.10;;
60098;SDS011;45976;49.400;8.682;2022-07-10T06:09:01;6.70;;;1.30;;
60098;SDS011;45976;49.400;8.682;2022-07-10T06:10:05;3.20;;;1.10;;
60098;SDS011;45976;49.400;8.682;2022-07-10T06:11:06;3.53;;;1.13;;
60098;SDS011;45976;49.400;8.682;2022-07-10T06:12:06;2.47;;;1.20;;
60098;SDS011;45976;49.400;8.682;2022-07-10T06:13:07;6.75;;;1.40;;
60098;SDS011;45976;49.400;8.682;2022-07-10T06:14:08;6.60;;;1.57;;
60098;SDS011;45976;49.400;8.682;2022-07-10T06:15:08;4.00;;;1.30;;
60098;SDS011;45976;49.400;8.682;2022-07-10T06:16:09;5.10;;;1.15;;
60098;SDS011;45976;49.400;8.682;2022-07-10T06:17:10;7.43;;;1.70;;
60098;SDS011;45976;49.400;8.682;2022-07-10T06:18:11;4.25;;;1.13;;
60098;SDS011;45976;49.400;8.682;2022-07-10T06:19:12;8.33;;;1.43;;
60098;SDS011;45976;49.400;8.682;2022-07-10T06:20:12;2.40;;;1.10;;
60098;SDS011;45976;49.400;8.682;2022-07-10T06:21:13;3.87;;;1.10;;
60098;SDS011;45976;49.400;8.682;2022-07-10T06:22:13;3.77;;;1.00;;
60098;SDS011;45976;49.400;8.682;2022-07-10T06:23:33;3.40;;;1.33;;
60098;SDS011;45976;49.400;8.682;2022-07-10T06:24:34;4.43;;;1.33;;
60098;SDS011;45976;49.400;8.682;2022-07-10T06:25:38;5.70;;;1.55;;
60098;SDS011;45976;49.400;8.682;2022-07-10T06:26:39;8.48;;;1.45;;
60098;SDS011;45976;49.400;8.682;2022-07-10T06:27:40;3.70;;;1.37;;